createdAt,value
2022-08-29T00:00:21.991Z,1014.76
2022-08-29T00:01:21.979Z,1014.74
2022-08-29T00:02:22.085Z,1014.75
2022-08-29T00:03:21.979Z,1014.76
2022-08-29T00:04:22.036Z,1014.72
2022-08-29T00:05:25.024Z,1014.73
2022-08-29T00:06:21.926Z,1014.72
2022-08-29T00:07:21.915Z,1014.71
2022-08-29T00:08:21.903Z,1014.69
2022-08-29T00:09:21.913Z,1014.70
2022-08-29T00:10:21.883Z,1014.72
2022-08-29T00:11:21.871Z,1014.79
2022-08-29T00:12:21.861Z,1014.75
2022-08-29T00:13:21.850Z,1014.72
2022-08-29T00:14:23.609Z,1014.79
2022-08-29T00:15:21.856Z,1014.76
2022-08-29T00:16:21.884Z,1014.79
2022-08-29T00:17:21.807Z,1014.80
2022-08-29T00:18:21.796Z,1014.78
2022-08-29T00:19:21.787Z,1014.77
2022-08-29T00:20:21.772Z,1014.76
2022-08-29T00:21:22.788Z,1014.76
2022-08-29T00:22:21.753Z,1014.76
2022-08-29T00:23:21.741Z,1014.76
2022-08-29T00:24:21.729Z,1014.82
2022-08-29T00:25:21.718Z,1014.74
2022-08-29T00:26:21.708Z,1014.77
2022-08-29T00:27:21.704Z,1014.74
2022-08-29T00:28:21.686Z,1014.77
2022-08-29T00:29:21.676Z,1014.77
2022-08-29T00:30:21.664Z,1014.78
2022-08-29T00:31:21.716Z,1014.81
2022-08-29T00:32:21.643Z,1014.80
2022-08-29T00:33:21.645Z,1014.80
2022-08-29T00:34:21.621Z,1014.77
2022-08-29T00:35:21.610Z,1014.76
2022-08-29T00:36:22.507Z,1014.75
2022-08-29T00:37:21.588Z,1014.77
2022-08-29T00:38:21.578Z,1014.79
2022-08-29T00:39:23.131Z,1014.76
2022-08-29T00:40:21.644Z,1014.81
2022-08-29T00:41:21.545Z,1014.77
2022-08-29T00:42:21.536Z,1014.76
2022-08-29T00:43:21.523Z,1014.77
2022-08-29T00:44:21.512Z,1014.75
2022-08-29T00:45:21.521Z,1014.74
2022-08-29T00:46:21.587Z,1014.74
2022-08-29T00:47:21.480Z,1014.73
2022-08-29T00:48:21.468Z,1014.76
2022-08-29T00:49:21.460Z,1014.79
2022-08-29T00:50:21.450Z,1014.74
2022-08-29T00:51:21.465Z,1014.76
2022-08-29T00:52:21.425Z,1014.77
2022-08-29T00:53:21.415Z,1014.78
2022-08-29T00:54:21.406Z,1014.76
2022-08-29T00:55:21.394Z,1014.76
2022-08-29T00:56:21.383Z,1014.76
2022-08-29T00:57:21.376Z,1014.76
2022-08-29T00:58:21.362Z,1014.76
2022-08-29T00:59:21.349Z,1014.78
2022-08-29T01:00:21.341Z,1014.79
2022-08-29T01:01:21.407Z,1014.78
2022-08-29T01:02:21.381Z,1014.77
2022-08-29T01:03:21.311Z,1014.74
2022-08-29T01:04:23.764Z,1014.75
2022-08-29T01:05:21.283Z,1014.76
2022-08-29T01:06:21.272Z,1014.77
2022-08-29T01:07:21.263Z,1014.75
2022-08-29T01:08:21.251Z,1014.74
2022-08-29T01:09:21.246Z,1014.75
2022-08-29T01:10:21.229Z,1014.79
2022-08-29T01:11:21.218Z,1014.80
2022-08-29T01:12:21.208Z,1014.81
2022-08-29T01:13:21.197Z,1014.80
2022-08-29T01:14:21.188Z,1014.81
2022-08-29T01:15:21.191Z,1014.80
2022-08-29T01:16:21.206Z,1014.83
2022-08-29T01:17:21.152Z,1014.87
2022-08-29T01:18:21.143Z,1014.88
2022-08-29T01:19:21.131Z,1014.90
2022-08-29T01:20:21.120Z,1014.90
2022-08-29T01:21:21.131Z,1014.87
2022-08-29T01:22:21.098Z,1014.89
2022-08-29T01:23:21.092Z,1014.87
2022-08-29T01:24:21.078Z,1014.91
2022-08-29T01:25:21.066Z,1014.91
2022-08-29T01:26:21.056Z,1014.89
2022-08-29T01:27:21.096Z,1014.93
2022-08-29T01:28:21.033Z,1014.93
2022-08-29T01:29:21.023Z,1014.93
2022-08-29T01:30:21.012Z,1014.96
2022-08-29T01:31:46.849Z,1014.98
2022-08-29T01:32:22.040Z,1015.02
2022-08-29T01:33:20.978Z,1015.03
2022-08-29T01:34:20.972Z,1015.06
2022-08-29T01:35:20.956Z,1015.04
2022-08-29T01:36:20.947Z,1015.05
2022-08-29T01:37:20.936Z,1015.05
2022-08-29T01:38:20.937Z,1015.09
2022-08-29T01:39:20.915Z,1015.05
2022-08-29T01:40:21.029Z,1015.04
2022-08-29T01:41:20.895Z,1015.06
2022-08-29T01:42:20.882Z,1015.02
2022-08-29T01:43:20.870Z,1015.09
2022-08-29T01:44:20.866Z,1015.09
2022-08-29T01:45:20.911Z,1015.06
2022-08-29T01:46:20.836Z,1015.08
2022-08-29T01:47:20.826Z,1015.07
2022-08-29T01:48:20.816Z,1015.10
2022-08-29T01:49:20.804Z,1015.11
2022-08-29T01:50:20.816Z,1015.12
2022-08-29T01:51:20.783Z,1015.06
2022-08-29T01:52:20.771Z,1015.08
2022-08-29T01:53:20.762Z,1015.03
2022-08-29T01:54:20.752Z,1015.04
2022-08-29T01:55:20.739Z,1015.04
2022-08-29T01:56:20.756Z,1015.07
2022-08-29T01:57:20.720Z,1015.10
2022-08-29T01:58:20.707Z,1015.11
2022-08-29T01:59:20.696Z,1015.08
2022-08-29T02:00:20.686Z,1015.07
2022-08-29T02:01:21.934Z,1015.09
2022-08-29T02:02:20.812Z,1015.09
2022-08-29T02:03:20.652Z,1015.09
2022-08-29T02:04:20.642Z,1015.14
2022-08-29T02:05:20.631Z,1015.14
2022-08-29T02:06:20.619Z,1015.13
2022-08-29T02:07:20.611Z,1015.19
2022-08-29T02:08:20.604Z,1015.19
2022-08-29T02:09:20.587Z,1015.18
2022-08-29T02:10:20.576Z,1015.22
2022-08-29T02:11:20.565Z,1015.14
2022-08-29T02:12:20.572Z,1015.20
2022-08-29T02:13:20.543Z,1015.09
2022-08-29T02:14:20.537Z,1015.13
2022-08-29T02:15:20.521Z,1015.14
2022-08-29T02:16:20.535Z,1015.07
2022-08-29T02:17:20.499Z,1015.05
2022-08-29T02:18:20.489Z,1015.03
2022-08-29T02:19:20.478Z,1015.01
2022-08-29T02:20:20.473Z,1014.96
2022-08-29T02:21:20.504Z,1014.96
2022-08-29T02:22:20.444Z,1014.98
2022-08-29T02:23:30.482Z,1014.97
2022-08-29T02:24:25.859Z,1015.03
2022-08-29T02:25:20.412Z,1015.00
2022-08-29T02:26:20.416Z,1015.04
2022-08-29T02:27:20.391Z,1015.05
2022-08-29T02:28:20.381Z,1015.05
2022-08-29T02:29:20.370Z,1015.05
2022-08-29T02:30:20.359Z,1015.08
2022-08-29T02:31:20.460Z,1015.06
2022-08-29T02:32:20.856Z,1015.06
2022-08-29T02:33:20.324Z,1015.01
2022-08-29T02:34:20.313Z,1015.05
2022-08-29T02:35:20.304Z,1015.10
2022-08-29T02:36:20.293Z,1015.02
2022-08-29T02:37:20.281Z,1015.02
2022-08-29T02:38:20.276Z,1015.03
2022-08-29T02:39:20.261Z,1015.07
2022-08-29T02:40:20.370Z,1015.00
2022-08-29T02:41:20.237Z,1015.02
2022-08-29T02:42:20.227Z,1015.00
2022-08-29T02:43:20.217Z,1015.02
2022-08-29T02:44:20.213Z,1015.02
2022-08-29T02:45:20.194Z,1015.00
2022-08-29T02:46:20.247Z,1015.08
2022-08-29T02:47:20.174Z,1015.00
2022-08-29T02:48:20.161Z,1015.01
2022-08-29T02:49:20.150Z,1015.06
2022-08-29T02:50:20.146Z,1015.03
2022-08-29T02:51:20.129Z,1015.07
2022-08-29T02:52:20.118Z,1015.08
2022-08-29T02:53:20.107Z,1015.14
2022-08-29T02:54:20.098Z,1015.12
2022-08-29T02:55:20.085Z,1015.13
2022-08-29T02:56:20.081Z,1015.08
2022-08-29T02:57:20.064Z,1015.12
2022-08-29T02:58:20.052Z,1015.13
2022-08-29T02:59:20.042Z,1015.12
2022-08-29T03:00:20.031Z,1015.13
2022-08-29T03:01:20.085Z,1015.13
2022-08-29T03:02:20.084Z,1015.10
2022-08-29T03:03:20.002Z,1015.10
2022-08-29T03:04:19.987Z,1015.10
2022-08-29T03:05:19.975Z,1015.09
2022-08-29T03:06:19.968Z,1015.10
2022-08-29T03:07:19.955Z,1015.11
2022-08-29T03:08:19.975Z,1015.09
2022-08-29T03:09:19.933Z,1015.07
2022-08-29T03:10:19.925Z,1015.09
2022-08-29T03:11:19.911Z,1015.05
2022-08-29T03:12:19.901Z,1015.07
2022-08-29T03:13:19.890Z,1015.12
2022-08-29T03:14:19.885Z,1015.08
2022-08-29T03:15:19.868Z,1015.08
2022-08-29T03:16:19.954Z,1015.07
2022-08-29T03:17:19.846Z,1015.04
2022-08-29T03:18:19.838Z,1015.04
2022-08-29T03:19:19.824Z,1015.03
2022-08-29T03:20:19.820Z,1015.04
2022-08-29T03:21:19.803Z,1015.05
2022-08-29T03:22:19.791Z,1015.05
2022-08-29T03:23:19.780Z,1015.04
2022-08-29T03:24:26.289Z,1015.06
2022-08-29T03:25:20.764Z,1015.09
2022-08-29T03:26:19.749Z,1015.04
2022-08-29T03:27:19.740Z,1015.06
2022-08-29T03:28:19.727Z,1015.04
2022-08-29T03:29:19.715Z,1015.06
2022-08-29T03:30:19.704Z,1015.09
2022-08-29T03:31:19.783Z,1015.06
2022-08-29T03:32:19.682Z,1015.01
2022-08-29T03:33:19.672Z,1015.02
2022-08-29T03:34:19.659Z,1014.98
2022-08-29T03:35:19.662Z,1014.95
2022-08-29T03:36:19.638Z,1014.98
2022-08-29T03:37:19.658Z,1014.97
2022-08-29T03:38:19.618Z,1014.95
2022-08-29T03:39:19.606Z,1014.97
2022-08-29T03:40:19.669Z,1014.96
2022-08-29T03:41:19.585Z,1014.97
2022-08-29T03:42:19.577Z,1014.97
2022-08-29T03:43:19.591Z,1014.96
2022-08-29T03:44:19.551Z,1014.97
2022-08-29T03:45:19.545Z,1014.94
2022-08-29T03:46:19.604Z,1014.97
2022-08-29T03:47:19.520Z,1014.98
2022-08-29T03:48:19.510Z,1014.95
2022-08-29T03:49:19.507Z,1014.95
2022-08-29T03:50:19.508Z,1014.97
2022-08-29T03:51:19.477Z,1014.99
2022-08-29T03:52:19.465Z,1014.99
2022-08-29T03:53:19.453Z,1014.98
2022-08-29T03:54:19.446Z,1015.00
2022-08-29T03:55:19.441Z,1014.99
2022-08-29T03:56:19.421Z,1014.99
2022-08-29T03:57:19.412Z,1014.95
2022-08-29T03:58:19.400Z,1014.97
2022-08-29T03:59:19.390Z,1014.93
2022-08-29T04:00:19.377Z,1014.94
2022-08-29T04:01:19.456Z,1014.96
2022-08-29T04:02:19.358Z,1014.95
2022-08-29T04:03:19.390Z,1014.97
2022-08-29T04:04:19.334Z,1015.01
2022-08-29T04:05:19.323Z,1014.97
2022-08-29T04:06:19.313Z,1015.03
2022-08-29T04:07:19.322Z,1015.05
2022-08-29T04:08:19.290Z,1015.01
2022-08-29T04:09:19.279Z,1014.99
2022-08-29T04:10:19.269Z,1015.02
2022-08-29T04:11:19.258Z,1014.99
2022-08-29T04:12:19.248Z,1014.96
2022-08-29T04:13:19.258Z,1014.99
2022-08-29T04:14:19.226Z,1014.99
2022-08-29T04:15:19.214Z,1015.00
2022-08-29T04:16:19.297Z,1015.00
2022-08-29T04:17:19.195Z,1015.02
2022-08-29T04:18:21.377Z,1015.02
2022-08-29T04:19:19.199Z,1014.99
2022-08-29T04:20:24.131Z,1015.03
2022-08-29T04:21:20.148Z,1014.99
2022-08-29T04:22:19.137Z,1015.00
2022-08-29T04:23:19.128Z,1015.01
2022-08-29T04:24:19.116Z,1015.02
2022-08-29T04:25:19.121Z,1015.03
2022-08-29T04:26:36.016Z,1015.07
2022-08-29T04:27:20.082Z,1015.06
2022-08-29T04:28:19.071Z,1015.08
2022-08-29T04:29:19.061Z,1015.08
2022-08-29T04:30:19.052Z,1015.07
2022-08-29T04:31:19.060Z,1015.08
2022-08-29T04:32:19.030Z,1015.08
2022-08-29T04:33:22.550Z,1015.08
2022-08-29T04:34:19.007Z,1015.10
2022-08-29T04:35:18.996Z,1015.07
2022-08-29T04:36:18.985Z,1015.09
2022-08-29T04:37:18.994Z,1015.09
2022-08-29T04:38:18.963Z,1015.09
2022-08-29T04:39:18.952Z,1015.10
2022-08-29T04:40:19.023Z,1015.11
2022-08-29T04:41:18.931Z,1015.13
2022-08-29T04:42:20.363Z,1015.15
2022-08-29T04:43:18.931Z,1015.16
2022-08-29T04:44:18.899Z,1015.15
2022-08-29T04:45:18.886Z,1015.13
2022-08-29T04:46:23.774Z,1015.18
2022-08-29T04:47:19.868Z,1015.17
2022-08-29T04:48:19.039Z,1015.19
2022-08-29T04:49:18.854Z,1015.20
2022-08-29T04:50:18.835Z,1015.18
2022-08-29T04:51:18.822Z,1015.22
2022-08-29T04:52:18.811Z,1015.20
2022-08-29T04:53:18.799Z,1015.22
2022-08-29T04:54:18.788Z,1015.15
2022-08-29T04:55:21.685Z,1015.19
2022-08-29T04:56:19.766Z,1015.17
2022-08-29T04:57:18.766Z,1015.15
2022-08-29T04:58:18.746Z,1015.13
2022-08-29T04:59:18.735Z,1015.17
2022-08-29T05:00:18.725Z,1015.15
2022-08-29T05:01:18.794Z,1015.15
2022-08-29T05:02:18.769Z,1015.21
2022-08-29T05:03:18.690Z,1015.18
2022-08-29T05:04:18.681Z,1015.16
2022-08-29T05:05:18.671Z,1015.16
2022-08-29T05:06:18.658Z,1015.16
2022-08-29T05:07:18.653Z,1015.16
2022-08-29T05:08:18.637Z,1015.20
2022-08-29T05:09:18.626Z,1015.21
2022-08-29T05:10:18.614Z,1015.18
2022-08-29T05:11:23.001Z,1015.18
2022-08-29T05:12:18.594Z,1015.21
2022-08-29T05:13:18.602Z,1015.21
2022-08-29T05:14:18.571Z,1015.25
2022-08-29T05:15:18.571Z,1015.23
2022-08-29T05:16:18.641Z,1015.26
2022-08-29T05:17:18.540Z,1015.27
2022-08-29T05:18:18.527Z,1015.30
2022-08-29T05:19:18.549Z,1015.33
2022-08-29T05:20:18.507Z,1015.34
2022-08-29T05:21:18.499Z,1015.36
2022-08-29T05:22:18.504Z,1015.38
2022-08-29T05:23:18.480Z,1015.36
2022-08-29T05:24:18.465Z,1015.39
2022-08-29T05:25:18.747Z,1015.40
2022-08-29T05:26:18.443Z,1015.43
2022-08-29T05:27:18.429Z,1015.44
2022-08-29T05:28:18.417Z,1015.44
2022-08-29T05:29:18.407Z,1015.43
2022-08-29T05:30:19.845Z,1015.41
2022-08-29T05:31:19.417Z,1015.40
2022-08-29T05:32:18.378Z,1015.41
2022-08-29T05:33:18.366Z,1015.43
2022-08-29T05:34:34.829Z,1015.46
2022-08-29T05:35:19.346Z,1015.45
2022-08-29T05:36:18.331Z,1015.47
2022-08-29T05:37:18.327Z,1015.51
2022-08-29T05:38:18.415Z,1015.49
2022-08-29T05:39:18.298Z,1015.49
2022-08-29T05:40:18.315Z,1015.49
2022-08-29T05:41:18.278Z,1015.52
2022-08-29T05:42:18.266Z,1015.53
2022-08-29T05:43:18.276Z,1015.53
2022-08-29T05:44:18.246Z,1015.52
2022-08-29T05:45:18.232Z,1015.53
2022-08-29T05:46:20.091Z,1015.53
2022-08-29T05:47:18.223Z,1015.59
2022-08-29T05:48:18.202Z,1015.56
2022-08-29T05:49:18.211Z,1015.54
2022-08-29T05:50:18.178Z,1015.59
2022-08-29T05:51:18.168Z,1015.59
2022-08-29T05:52:18.158Z,1015.56
2022-08-29T05:53:18.146Z,1015.57
2022-08-29T05:54:18.134Z,1015.54
2022-08-29T05:55:18.141Z,1015.58
2022-08-29T05:56:18.115Z,1015.57
2022-08-29T05:57:19.284Z,1015.58
2022-08-29T05:58:18.092Z,1015.56
2022-08-29T05:59:18.083Z,1015.55
2022-08-29T06:00:18.086Z,1015.56
2022-08-29T06:01:18.064Z,1015.56
2022-08-29T06:02:18.271Z,1015.56
2022-08-29T06:03:18.169Z,1015.55
2022-08-29T06:04:18.026Z,1015.56
2022-08-29T06:05:18.015Z,1015.49
2022-08-29T06:06:18.004Z,1015.53
2022-08-29T06:07:18.002Z,1015.46
2022-08-29T06:08:17.982Z,1015.51
2022-08-29T06:09:17.980Z,1015.47
2022-08-29T06:10:17.962Z,1015.48
2022-08-29T06:11:17.950Z,1015.47
2022-08-29T06:12:17.942Z,1015.50
2022-08-29T06:13:17.938Z,1015.48
2022-08-29T06:14:17.918Z,1015.51
2022-08-29T06:15:17.907Z,1015.54
2022-08-29T06:16:17.971Z,1015.49
2022-08-29T06:17:17.886Z,1015.55
2022-08-29T06:18:17.873Z,1015.53
2022-08-29T06:19:18.882Z,1015.51
2022-08-29T06:20:17.863Z,1015.57
2022-08-29T06:21:17.840Z,1015.59
2022-08-29T06:22:17.843Z,1015.57
2022-08-29T06:23:17.819Z,1015.58
2022-08-29T06:24:18.807Z,1015.57
2022-08-29T06:25:37.867Z,1015.58
2022-08-29T06:26:18.785Z,1015.59
2022-08-29T06:27:17.777Z,1015.62
2022-08-29T06:28:17.765Z,1015.60
2022-08-29T06:29:18.755Z,1015.60
2022-08-29T06:30:17.743Z,1015.64
2022-08-29T06:31:17.839Z,1015.57
2022-08-29T06:32:17.727Z,1015.60
2022-08-29T06:33:17.713Z,1015.61
2022-08-29T06:34:17.701Z,1015.64
2022-08-29T06:35:17.689Z,1015.63
2022-08-29T06:36:17.677Z,1015.66
2022-08-29T06:37:17.698Z,1015.61
2022-08-29T06:38:17.915Z,1015.65
2022-08-29T06:39:17.645Z,1015.65
2022-08-29T06:40:17.658Z,1015.66
2022-08-29T06:41:17.622Z,1015.69
2022-08-29T06:42:17.612Z,1015.69
2022-08-29T06:43:17.607Z,1015.72
2022-08-29T06:44:17.591Z,1015.72
2022-08-29T06:45:17.579Z,1015.73
2022-08-29T06:46:17.602Z,1015.75
2022-08-29T06:47:17.557Z,1015.74
2022-08-29T06:48:17.547Z,1015.75
2022-08-29T06:49:17.560Z,1015.74
2022-08-29T06:50:17.530Z,1015.75
2022-08-29T06:51:17.518Z,1015.76
2022-08-29T06:52:17.506Z,1015.78
2022-08-29T06:53:27.381Z,1015.72
2022-08-29T06:54:18.486Z,1015.75
2022-08-29T06:55:17.470Z,1015.73
2022-08-29T06:56:18.507Z,1015.74
2022-08-29T06:57:17.450Z,1015.76
2022-08-29T06:58:17.439Z,1015.76
2022-08-29T06:59:17.429Z,1015.80
2022-08-29T07:00:21.658Z,1015.85
2022-08-29T07:01:18.482Z,1015.82
2022-08-29T07:02:17.473Z,1015.83
2022-08-29T07:03:17.387Z,1015.82
2022-08-29T07:04:20.634Z,1015.82
2022-08-29T07:05:17.365Z,1015.84
2022-08-29T07:06:17.357Z,1015.80
2022-08-29T07:07:17.340Z,1015.83
2022-08-29T07:08:17.328Z,1015.83
2022-08-29T07:09:17.318Z,1015.80
2022-08-29T07:10:22.100Z,1015.86
2022-08-29T07:11:18.325Z,1015.86
2022-08-29T07:12:17.285Z,1015.88
2022-08-29T07:13:17.278Z,1015.91
2022-08-29T07:14:17.264Z,1015.91
2022-08-29T07:15:17.255Z,1015.92
2022-08-29T07:16:17.265Z,1015.97
2022-08-29T07:17:25.590Z,1015.97
2022-08-29T07:18:18.221Z,1016.01
2022-08-29T07:19:17.209Z,1016.02
2022-08-29T07:20:17.201Z,1015.98
2022-08-29T07:21:20.676Z,1016.03
2022-08-29T07:22:17.177Z,1016.01
2022-08-29T07:23:17.379Z,1016.02
2022-08-29T07:24:18.593Z,1016.02
2022-08-29T07:25:17.150Z,1016.05
2022-08-29T07:26:17.134Z,1016.05
2022-08-29T07:27:17.121Z,1016.05
2022-08-29T07:28:17.343Z,1016.06
2022-08-29T07:29:17.107Z,1016.02
2022-08-29T07:30:17.090Z,1016.03
2022-08-29T07:31:17.145Z,1016.01
2022-08-29T07:32:17.067Z,1015.99
2022-08-29T07:33:17.243Z,1015.98
2022-08-29T07:34:20.648Z,1016.00
2022-08-29T07:35:19.824Z,1016.00
2022-08-29T07:36:18.023Z,1016.03
2022-08-29T07:37:17.013Z,1016.04
2022-08-29T07:38:17.031Z,1016.06
2022-08-29T07:39:16.992Z,1016.08
2022-08-29T07:40:17.070Z,1016.12
2022-08-29T07:41:16.976Z,1016.11
2022-08-29T07:42:16.958Z,1016.08
2022-08-29T07:43:20.420Z,1016.11
2022-08-29T07:44:16.940Z,1016.15
2022-08-29T07:45:16.928Z,1016.11
2022-08-29T07:46:16.983Z,1016.13
2022-08-29T07:47:16.912Z,1016.12
2022-08-29T07:48:21.106Z,1016.11
2022-08-29T07:49:17.881Z,1016.09
2022-08-29T07:50:16.873Z,1016.11
2022-08-29T07:51:16.860Z,1016.13
2022-08-29T07:52:16.851Z,1016.16
2022-08-29T07:53:17.225Z,1016.14
2022-08-29T07:54:17.098Z,1016.18
2022-08-29T07:55:16.817Z,1016.21
2022-08-29T07:56:16.806Z,1016.21
2022-08-29T07:57:16.797Z,1016.23
2022-08-29T07:58:16.915Z,1016.25
2022-08-29T07:59:16.781Z,1016.27
2022-08-29T08:00:16.763Z,1016.33
2022-08-29T08:01:20.854Z,1016.33
2022-08-29T08:02:16.837Z,1016.38
2022-08-29T08:03:16.938Z,1016.39
2022-08-29T08:04:16.719Z,1016.36
2022-08-29T08:05:16.722Z,1016.34
2022-08-29T08:06:16.698Z,1016.31
2022-08-29T08:07:16.686Z,1016.35
2022-08-29T08:08:16.767Z,1016.36
2022-08-29T08:09:16.667Z,1016.41
2022-08-29T08:10:16.653Z,1016.41
2022-08-29T08:11:16.651Z,1016.40
2022-08-29T08:12:16.631Z,1016.44
2022-08-29T08:13:16.879Z,1016.49
2022-08-29T08:14:16.609Z,1016.47
2022-08-29T08:15:16.599Z,1016.46
2022-08-29T08:16:16.725Z,1016.52
2022-08-29T08:17:16.583Z,1016.44
2022-08-29T08:18:16.765Z,1016.42
2022-08-29T08:19:16.555Z,1016.45
2022-08-29T08:20:16.544Z,1016.42
2022-08-29T08:21:16.536Z,1016.46
2022-08-29T08:22:16.525Z,1016.40
2022-08-29T08:23:16.832Z,1016.42
2022-08-29T08:24:19.574Z,1016.47
2022-08-29T08:25:16.490Z,1016.45
2022-08-29T08:26:16.485Z,1016.42
2022-08-29T08:27:16.470Z,1016.42
2022-08-29T08:28:16.701Z,1016.47
2022-08-29T08:29:16.453Z,1016.52
2022-08-29T08:30:16.437Z,1016.53
2022-08-29T08:31:16.466Z,1016.52
2022-08-29T08:32:16.414Z,1016.56
2022-08-29T08:33:16.590Z,1016.50
2022-08-29T08:34:16.392Z,1016.44
2022-08-29T08:35:16.412Z,1016.51
2022-08-29T08:36:16.370Z,1016.47
2022-08-29T08:37:24.279Z,1016.54
2022-08-29T08:38:17.347Z,1016.56
2022-08-29T08:39:16.340Z,1016.55
2022-08-29T08:40:16.388Z,1016.53
2022-08-29T08:41:16.323Z,1016.52
2022-08-29T08:42:16.309Z,1016.54
2022-08-29T08:43:18.431Z,1016.52
2022-08-29T08:44:17.283Z,1016.60
2022-08-29T08:45:16.272Z,1016.61
2022-08-29T08:46:16.304Z,1016.55
2022-08-29T08:47:16.280Z,1016.55
2022-08-29T08:48:16.241Z,1016.52
2022-08-29T08:49:16.230Z,1016.50
2022-08-29T08:50:16.220Z,1016.50
2022-08-29T08:51:16.208Z,1016.48
2022-08-29T08:52:16.197Z,1016.46
2022-08-29T08:53:16.431Z,1016.44
2022-08-29T08:54:16.176Z,1016.47
2022-08-29T08:55:16.163Z,1016.50
2022-08-29T08:56:16.152Z,1016.50
2022-08-29T08:57:16.141Z,1016.54
2022-08-29T08:58:16.306Z,1016.59
2022-08-29T08:59:16.137Z,1016.46
2022-08-29T09:00:16.109Z,1016.58
2022-08-29T09:01:16.176Z,1016.56
2022-08-29T09:02:16.136Z,1016.52
2022-08-29T09:03:16.232Z,1016.59
2022-08-29T09:04:16.066Z,1016.63
2022-08-29T09:05:16.062Z,1016.59
2022-08-29T09:06:16.045Z,1016.64
2022-08-29T09:07:16.033Z,1016.64
2022-08-29T09:08:16.023Z,1016.62
2022-08-29T09:09:16.012Z,1016.62
2022-08-29T09:10:15.999Z,1016.57
2022-08-29T09:11:15.995Z,1016.59
2022-08-29T09:12:15.978Z,1016.64
2022-08-29T09:13:16.179Z,1016.59
2022-08-29T09:14:15.960Z,1016.61
2022-08-29T09:15:15.945Z,1016.61
2022-08-29T09:16:15.962Z,1016.64
2022-08-29T09:17:15.930Z,1016.59
2022-08-29T09:18:18.058Z,1016.60
2022-08-29T09:19:17.901Z,1016.65
2022-08-29T09:20:15.891Z,1016.60
2022-08-29T09:21:39.568Z,1016.60
2022-08-29T09:22:16.874Z,1016.58
2022-08-29T09:23:16.118Z,1016.59
2022-08-29T09:24:15.849Z,1016.56
2022-08-29T09:25:15.841Z,1016.58
2022-08-29T09:26:15.826Z,1016.56
2022-08-29T09:27:15.815Z,1016.62
2022-08-29T09:28:15.810Z,1016.58
2022-08-29T09:29:15.794Z,1016.59
2022-08-29T09:30:15.790Z,1016.57
2022-08-29T09:31:15.811Z,1016.60
2022-08-29T09:32:20.318Z,1016.63
2022-08-29T09:33:17.060Z,1016.70
2022-08-29T09:34:15.739Z,1016.67
2022-08-29T09:35:15.727Z,1016.64
2022-08-29T09:36:15.717Z,1016.63
2022-08-29T09:37:15.706Z,1016.53
2022-08-29T09:38:15.695Z,1016.55
2022-08-29T09:39:15.691Z,1016.55
2022-08-29T09:40:15.838Z,1016.58
2022-08-29T09:41:15.662Z,1016.55
2022-08-29T09:42:15.652Z,1016.54
2022-08-29T09:43:15.793Z,1016.56
2022-08-29T09:44:15.630Z,1016.58
2022-08-29T09:45:15.624Z,1016.51
2022-08-29T09:46:15.646Z,1016.54
2022-08-29T09:47:15.596Z,1016.54
2022-08-29T09:48:15.588Z,1016.61
2022-08-29T09:49:15.576Z,1016.54
2022-08-29T09:50:15.565Z,1016.51
2022-08-29T09:51:15.583Z,1016.51
2022-08-29T09:52:15.555Z,1016.55
2022-08-29T09:53:24.913Z,1016.58
2022-08-29T09:54:16.523Z,1016.56
2022-08-29T09:55:15.510Z,1016.58
2022-08-29T09:56:15.501Z,1016.59
2022-08-29T09:57:15.510Z,1016.61
2022-08-29T09:58:15.476Z,1016.67
2022-08-29T09:59:15.467Z,1016.67
2022-08-29T10:00:15.455Z,1016.66
2022-08-29T10:01:15.562Z,1016.62
2022-08-29T10:02:15.527Z,1016.65
2022-08-29T10:03:15.638Z,1016.67
2022-08-29T10:04:15.412Z,1016.65
2022-08-29T10:05:15.402Z,1016.69
2022-08-29T10:06:15.389Z,1016.68
2022-08-29T10:07:15.380Z,1016.69
2022-08-29T10:08:15.370Z,1016.68
2022-08-29T10:09:15.373Z,1016.62
2022-08-29T10:10:15.346Z,1016.66
2022-08-29T10:11:15.335Z,1016.64
2022-08-29T10:12:15.323Z,1016.65
2022-08-29T10:13:15.567Z,1016.67
2022-08-29T10:14:15.303Z,1016.65
2022-08-29T10:15:28.220Z,1016.66
2022-08-29T10:16:16.318Z,1016.72
2022-08-29T10:17:15.270Z,1016.70
2022-08-29T10:18:15.259Z,1016.65
2022-08-29T10:19:15.248Z,1016.70
2022-08-29T10:20:15.248Z,1016.76
2022-08-29T10:21:15.242Z,1016.67
2022-08-29T10:22:15.249Z,1016.67
2022-08-29T10:23:15.430Z,1016.73
2022-08-29T10:24:17.351Z,1016.70
2022-08-29T10:25:15.182Z,1016.68
2022-08-29T10:26:15.176Z,1016.66
2022-08-29T10:27:15.183Z,1016.66
2022-08-29T10:28:15.151Z,1016.68
2022-08-29T10:29:15.140Z,1016.69
2022-08-29T10:30:15.162Z,1016.69
2022-08-29T10:31:15.161Z,1016.66
2022-08-29T10:32:15.108Z,1016.66
2022-08-29T10:33:15.255Z,1016.73
2022-08-29T10:34:15.085Z,1016.69
2022-08-29T10:35:15.075Z,1016.72
2022-08-29T10:36:15.063Z,1016.71
2022-08-29T10:37:15.055Z,1016.74
2022-08-29T10:38:15.042Z,1016.72
2022-08-29T10:39:15.036Z,1016.63
2022-08-29T10:40:17.638Z,1016.67
2022-08-29T10:41:15.008Z,1016.63
2022-08-29T10:42:14.999Z,1016.68
2022-08-29T10:43:15.066Z,1016.74
2022-08-29T10:44:14.978Z,1016.75
2022-08-29T10:45:14.970Z,1016.76
2022-08-29T10:46:15.008Z,1016.72
2022-08-29T10:47:14.943Z,1016.78
2022-08-29T10:48:15.014Z,1016.75
2022-08-29T10:49:14.922Z,1016.82
2022-08-29T10:50:27.595Z,1016.72
2022-08-29T10:51:17.401Z,1016.73
2022-08-29T10:52:14.889Z,1016.74
2022-08-29T10:53:14.881Z,1016.72
2022-08-29T10:54:14.867Z,1016.79
2022-08-29T10:55:14.862Z,1016.74
2022-08-29T10:56:14.846Z,1016.78
2022-08-29T10:57:14.840Z,1016.86
2022-08-29T10:58:14.943Z,1016.77
2022-08-29T10:59:14.814Z,1016.79
2022-08-29T11:00:14.871Z,1016.75
2022-08-29T11:01:14.903Z,1016.75
2022-08-29T11:02:14.780Z,1016.73
2022-08-29T11:03:15.019Z,1016.73
2022-08-29T11:04:14.815Z,1016.73
2022-08-29T11:05:14.747Z,1016.69
2022-08-29T11:06:14.738Z,1016.67
2022-08-29T11:07:14.726Z,1016.71
2022-08-29T11:08:16.444Z,1016.68
2022-08-29T11:09:14.710Z,1016.72
2022-08-29T11:10:14.780Z,1016.69
2022-08-29T11:11:14.683Z,1016.67
2022-08-29T11:12:17.783Z,1016.70
2022-08-29T11:13:14.660Z,1016.65
2022-08-29T11:14:14.650Z,1016.67
2022-08-29T11:15:14.644Z,1016.75
2022-08-29T11:16:14.753Z,1016.67
2022-08-29T11:17:14.618Z,1016.65
2022-08-29T11:18:15.478Z,1016.63
2022-08-29T11:19:20.126Z,1016.59
2022-08-29T11:20:15.589Z,1016.60
2022-08-29T11:21:14.574Z,1016.57
2022-08-29T11:22:14.562Z,1016.61
2022-08-29T11:23:14.553Z,1016.58
2022-08-29T11:24:14.542Z,1016.57
2022-08-29T11:25:14.529Z,1016.55
2022-08-29T11:26:14.526Z,1016.57
2022-08-29T11:27:14.511Z,1016.60
2022-08-29T11:28:14.704Z,1016.57
2022-08-29T11:29:14.486Z,1016.59
2022-08-29T11:30:14.475Z,1016.52
2022-08-29T11:31:14.473Z,1016.60
2022-08-29T11:32:14.458Z,1016.59
2022-08-29T11:33:14.710Z,1016.58
2022-08-29T11:34:14.432Z,1016.54
2022-08-29T11:35:14.420Z,1016.57
2022-08-29T11:36:14.412Z,1016.53
2022-08-29T11:37:14.401Z,1016.54
2022-08-29T11:38:14.393Z,1016.54
2022-08-29T11:39:14.378Z,1016.59
2022-08-29T11:40:14.984Z,1016.55
2022-08-29T11:41:30.237Z,1016.48
2022-08-29T11:42:15.472Z,1016.58
2022-08-29T11:43:14.575Z,1016.66
2022-08-29T11:44:14.330Z,1016.70
2022-08-29T11:45:14.312Z,1016.66
2022-08-29T11:46:14.300Z,1016.65
2022-08-29T11:47:14.338Z,1016.68
2022-08-29T11:48:14.278Z,1016.66
2022-08-29T11:49:14.268Z,1016.64
2022-08-29T11:50:14.263Z,1016.60
2022-08-29T11:51:14.249Z,1016.66
2022-08-29T11:52:15.830Z,1016.71
2022-08-29T11:53:16.879Z,1016.75
2022-08-29T11:54:14.215Z,1016.73
2022-08-29T11:55:16.100Z,1016.73
2022-08-29T11:56:14.234Z,1016.68
2022-08-29T11:57:14.186Z,1016.65
2022-08-29T11:58:14.173Z,1016.68
2022-08-29T11:59:14.161Z,1016.71
2022-08-29T12:00:14.662Z,1016.75
2022-08-29T12:01:14.141Z,1016.72
2022-08-29T12:02:14.168Z,1016.77
2022-08-29T12:03:25.223Z,1016.80
2022-08-29T12:04:15.157Z,1016.77
2022-08-29T12:05:14.098Z,1016.74